sensor_id;sensor_type;location;lat;lon;timestamp;P1;durP1;ratioP1;P2;durP2;ratioP2
32106;SDS011;18622;51.998;10.440;2023-02-15T03:47:48;11.03;;;4.40;;
32106;SDS011;18622;51.998;10.440;2023-02-15T03:53:06;18.67;;;5.50;;
32106;SDS011;18622;51.998;10.440;2023-02-15T03:55:35;21.80;;;6.08;;
32106;SDS011;18622;51.998;10.440;2023-02-15T03:58:03;18.70;;;5.63;;
32106;SDS011;18622;51.998;10.440;2023-02-15T04:03:32;11.40;;;4.45;;
32106;SDS011;18622;51.998;10.440;2023-02-15T04:06:16;12.47;;;3.87;;
32106;SDS011;18622;51.998;10.440;2023-02-15T04:08:44;14.00;;;4.37;;
32106;SDS011;18622;51.998;10.440;2023-02-15T04:11:30;9.73;;;3.83;;
32106;SDS011;18622;51.998;10.440;2023-02-15T04:13:58;10.43;;;4.00;;
32106;SDS011;18622;51.998;10.440;2023-02-15T04:16:28;14.60;;;3.57;;
32106;SDS011;18622;51.998;10.440;2023-02-15T04:18:55;8.20;;;3.37;;
32106;SDS011;18622;51.998;10.440;2023-02-15T04:21:41;9.03;;;3.30;;
32106;SDS011;18622;51.998;10.440;2023-02-15T04:24:27;6.53;;;2.23;;
32106;SDS011;18622;51.998;10.440;2023-02-15T04:27:12;7.53;;;2.70;;
32106;SDS011;18622;51.998;10.440;2023-02-15T04:29:40;7.43;;;2.77;;
32106;SDS011;18622;51.998;10.440;2023-02-15T04:32:08;7.07;;;2.83;;
32106;SDS011;18622;51.998;10.440;2023-02-15T04:34:36;9.83;;;3.83;;
32106;SDS011;18622;51.998;10.440;2023-02-15T04:37:04;11.30;;;3.80;;
32106;SDS011;18622;51.998;10.440;2023-02-15T04:39:31;15.10;;;3.67;;
32106;SDS011;18622;51.998;10.440;2023-02-15T04:41:59;12.43;;;3.53;;
32106;SDS011;18622;51.998;10.440;2023-02-15T04:44:27;9.57;;;3.47;;
32106;SDS011;18622;51.998;10.440;2023-02-15T04:46:55;6.60;;;2.57;;
32106;SDS011;18622;51.998;10.440;2023-02-15T04:49:23;14.70;;;3.67;;
32106;SDS011;18622;51.998;10.440;2023-02-15T04:51:50;6.37;;;2.80;;
32106;SDS011;18622;51.998;10.440;2023-02-15T04:54:18;7.03;;;2.67;;
32106;SDS011;18622;51.998;10.440;2023-02-15T04:56:46;6.37;;;2.63;;
32106;SDS011;18622;51.998;10.440;2023-02-15T04:59:14;9.77;;;3.00;;
32106;SDS011;18622;51.998;10.440;2023-02-15T05:01:42;5.23;;;2.40;;
32106;SDS011;18622;51.998;10.440;2023-02-15T05:04:09;3.40;;;2.10;;
32106;SDS011;18622;51.998;10.440;2023-02-15T05:06:37;4.73;;;2.53;;
32106;SDS011;18622;51.998;10.440;2023-02-15T05:09:05;11.93;;;3.20;;
32106;SDS011;18622;51.998;10.440;2023-02-15T05:11:33;4.13;;;2.00;;
32106;SDS011;18622;51.998;10.440;2023-02-15T05:14:01;4.60;;;1.90;;
32106;SDS011;18622;51.998;10.440;2023-02-15T05:16:28;8.00;;;1.87;;
32106;SDS011;18622;51.998;10.440;2023-02-15T05:18:56;5.17;;;1.57;;
32106;SDS011;18622;51.998;10.440;2023-02-15T05:21:24;4.07;;;1.80;;
32106;SDS011;18622;51.998;10.440;2023-02-15T05:23:52;5.80;;;2.00;;
32106;SDS011;18622;51.998;10.440;2023-02-15T05:26:21;4.33;;;1.77;;
32106;SDS011;18622;51.998;10.440;2023-02-15T05:29:08;16.87;;;6.42;;
32106;SDS011;18622;51.998;10.440;2023-02-15T05:31:36;26.50;;;11.45;;
32106;SDS011;18622;51.998;10.440;2023-02-15T05:34:04;17.40;;;9.43;;
32106;SDS011;18622;51.998;10.440;2023-02-15T05:36:32;20.70;;;8.40;;
32106;SDS011;18622;51.998;10.440;2023-02-15T05:41:37;12.37;;;7.57;;
32106;SDS011;18622;51.998;10.440;2023-02-15T05:44:05;16.90;;;7.77;;
32106;SDS011;18622;51.998;10.440;2023-02-15T05:46:33;10.60;;;5.00;;
32106;SDS011;18622;51.998;10.440;2023-02-15T05:49:01;11.17;;;4.47;;
32106;SDS011;18622;51.998;10.440;2023-02-15T05:51:28;8.40;;;2.53;;
32106;SDS011;18622;51.998;10.440;2023-02-15T05:53:56;4.13;;;2.00;;
32106;SDS011;18622;51.998;10.440;2023-02-15T05:56:24;4.80;;;1.60;;
32106;SDS011;18622;51.998;10.440;2023-02-15T05:58:52;4.67;;;1.77;;
32106;SDS011;18622;51.998;10.440;2023-02-15T06:01:20;8.45;;;1.87;;
32106;SDS011;18622;51.998;10.440;2023-02-15T06:03:48;5.50;;;1.37;;
32106;SDS011;18622;51.998;10.440;2023-02-15T06:06:16;4.10;;;1.77;;
32106;SDS011;18622;51.998;10.440;2023-02-15T06:08:44;7.03;;;2.70;;
32106;SDS011;18622;51.998;10.440;2023-02-15T06:11:12;9.87;;;3.27;;
32106;SDS011;18622;51.998;10.440;2023-02-15T06:13:40;5.77;;;2.60;;
32106;SDS011;18622;51.998;10.440;2023-02-15T06:16:08;13.47;;;4.33;;
32106;SDS011;18622;51.998;10.440;2023-02-15T06:18:36;14.87;;;4.97;;
32106;SDS011;18622;51.998;10.440;2023-02-15T06:21:04;13.43;;;4.23;;
32106;SDS011;18622;51.998;10.440;2023-02-15T06:23:31;10.93;;;4.20;;
32106;SDS011;18622;51.998;10.440;2023-02-15T06:25:59;12.83;;;4.40;;
32106;SDS011;18622;51.998;10.440;2023-02-15T06:28:27;9.80;;;4.30;;
32106;SDS011;18622;51.998;10.440;2023-02-15T15:48:50;9.03;;;6.80;;
32106;SDS011;18622;51.998;10.440;2023-02-15T15:51:29;12.45;;;6.37;;
32106;SDS011;18622;51.998;10.440;2023-02-15T15:53:52;39.30;;;19.33;;
32106;SDS011;18622;51.998;10.440;2023-02-15T15:56:22;44.00;;;19.62;;
32106;SDS011;18622;51.998;10.440;2023-02-15T15:59:00;24.80;;;11.77;;
32106;SDS011;18622;51.998;10.440;2023-02-15T16:01:37;20.25;;;10.28;;
32106;SDS011;18622;51.998;10.440;2023-02-15T16:09:56;24.73;;;13.80;;
32106;SDS011;18622;51.998;10.440;2023-02-15T16:12:30;16.75;;;9.98;;
32106;SDS011;18622;51.998;10.440;2023-02-15T16:15:04;31.75;;;15.65;;
32106;SDS011;18622;51.998;10.440;2023-02-15T16:17:34;13.90;;;7.13;;
32106;SDS011;18622;51.998;10.440;2023-02-15T16:20:03;10.80;;;6.60;;
32106;SDS011;18622;51.998;10.440;2023-02-15T16:22:35;9.87;;;6.20;;
32106;SDS011;18622;51.998;10.440;2023-02-15T16:25:17;9.43;;;5.53;;
32106;SDS011;18622;51.998;10.440;2023-02-15T16:27:44;11.60;;;6.72;;
32106;SDS011;18622;51.998;10.440;2023-02-15T16:30:17;11.20;;;6.55;;
32106;SDS011;18622;51.998;10.440;2023-02-15T16:32:47;14.77;;;6.97;;
32106;SDS011;18622;51.998;10.440;2023-02-15T16:35:16;8.07;;;5.70;;
32106;SDS011;18622;51.998;10.440;2023-02-15T16:37:45;16.23;;;10.28;;
32106;SDS011;18622;51.998;10.440;2023-02-15T16:42:54;27.25;;;15.48;;
32106;SDS011;18622;51.998;10.440;2023-02-15T16:45:24;26.30;;;16.23;;
32106;SDS011;18622;51.998;10.440;2023-02-15T16:47:55;22.07;;;13.45;;
32106;SDS011;18622;51.998;10.440;2023-02-15T16:50:27;22.60;;;12.78;;
32106;SDS011;18622;51.998;10.440;2023-02-15T16:52:55;15.80;;;8.73;;
32106;SDS011;18622;51.998;10.440;2023-02-15T16:55:24;12.78;;;7.28;;
32106;SDS011;18622;51.998;10.440;2023-02-15T16:57:56;18.62;;;10.13;;
32106;SDS011;18622;51.998;10.440;2023-02-15T17:00:28;43.10;;;19.67;;
32106;SDS011;18622;51.998;10.440;2023-02-15T17:03:04;18.47;;;9.20;;
32106;SDS011;18622;51.998;10.440;2023-02-15T17:05:44;9.15;;;5.85;;
32106;SDS011;18622;51.998;10.440;2023-02-15T17:14:27;11.63;;;6.97;;
32106;SDS011;18622;51.998;10.440;2023-02-15T17:16:48;17.60;;;7.10;;
32106;SDS011;18622;51.998;10.440;2023-02-15T17:19:23;9.40;;;6.50;;
32106;SDS011;18622;51.998;10.440;2023-02-15T17:21:55;12.90;;;6.60;;
32106;SDS011;18622;51.998;10.440;2023-02-15T17:27:15;10.73;;;6.87;;
32106;SDS011;18622;51.998;10.440;2023-02-15T17:29:51;27.20;;;16.37;;
32106;SDS011;18622;51.998;10.440;2023-02-15T17:32:22;13.22;;;7.85;;
32106;SDS011;18622;51.998;10.440;2023-02-15T17:34:59;15.73;;;7.50;;
32106;SDS011;18622;51.998;10.440;2023-02-15T17:40:24;13.43;;;7.43;;
32106;SDS011;18622;51.998;10.440;2023-02-15T17:42:56;13.83;;;7.87;;
32106;SDS011;18622;51.998;10.440;2023-02-15T17:45:33;11.67;;;6.80;;
32106;SDS011;18622;51.998;10.440;2023-02-15T17:50:31;12.68;;;7.70;;
32106;SDS011;18622;51.998;10.440;2023-02-15T17:52:59;19.33;;;7.93;;
32106;SDS011;18622;51.998;10.440;2023-02-15T17:55:27;13.07;;;7.43;;
32106;SDS011;18622;51.998;10.440;2023-02-15T17:58:10;9.90;;;6.40;;
32106;SDS011;18622;51.998;10.440;2023-02-15T18:00:45;13.33;;;6.73;;
32106;SDS011;18622;51.998;10.440;2023-02-15T18:03:47;10.32;;;6.37;;
32106;SDS011;18622;51.998;10.440;2023-02-15T18:06:30;15.37;;;6.77;;
32106;SDS011;18622;51.998;10.440;2023-02-15T18:09:18;12.70;;;6.73;;
32106;SDS011;18622;51.998;10.440;2023-02-15T18:17:13;10.70;;;6.50;;
32106;SDS011;18622;51.998;10.440;2023-02-15T18:19:42;12.15;;;6.37;;
32106;SDS011;18622;51.998;10.440;2023-02-15T18:22:17;13.00;;;6.70;;
32106;SDS011;18622;51.998;10.440;2023-02-15T18:24:44;17.02;;;7.00;;
32106;SDS011;18622;51.998;10.440;2023-02-15T18:27:13;10.10;;;6.05;;
32106;SDS011;18622;51.998;10.440;2023-02-15T18:29:41;14.10;;;6.42;;
32106;SDS011;18622;51.998;10.440;2023-02-15T18:32:14;16.50;;;7.57;;
32106;SDS011;18622;51.998;10.440;2023-02-15T18:34:43;14.27;;;7.77;;
32106;SDS011;18622;51.998;10.440;2023-02-15T18:37:18;15.47;;;9.47;;
32106;SDS011;18622;51.998;10.440;2023-02-15T18:39:44;15.70;;;8.07;;
32106;SDS011;18622;51.998;10.440;2023-02-15T18:42:23;11.22;;;7.45;;
32106;SDS011;18622;51.998;10.440;2023-02-15T18:44:57;16.40;;;7.75;;
32106;SDS011;18622;51.998;10.440;2023-02-15T18:47:28;12.97;;;7.73;;
32106;SDS011;18622;51.998;10.440;2023-02-15T18:49:55;12.60;;;7.07;;
32106;SDS011;18622;51.998;10.440;2023-02-15T18:52:25;14.10;;;7.20;;
32106;SDS011;18622;51.998;10.440;2023-02-15T18:54:55;10.80;;;6.45;;
32106;SDS011;18622;51.998;10.440;2023-02-15T18:57:26;10.80;;;6.27;;
32106;SDS011;18622;51.998;10.440;2023-02-15T18:59:55;12.60;;;6.62;;
32106;SDS011;18622;51.998;10.440;2023-02-15T19:02:22;13.43;;;6.37;;
32106;SDS011;18622;51.998;10.440;2023-02-15T19:04:50;11.83;;;6.87;;
32106;SDS011;18622;51.998;10.440;2023-02-15T19:07:22;10.60;;;6.33;;
32106;SDS011;18622;51.998;10.440;2023-02-15T19:09:53;10.43;;;6.43;;
32106;SDS011;18622;51.998;10.440;2023-02-15T19:12:23;10.80;;;6.80;;
32106;SDS011;18622;51.998;10.440;2023-02-15T19:14:51;10.60;;;6.00;;
32106;SDS011;18622;51.998;10.440;2023-02-15T19:17:20;12.10;;;6.17;;
32106;SDS011;18622;51.998;10.440;2023-02-15T19:19:49;9.83;;;5.30;;
32106;SDS011;18622;51.998;10.440;2023-02-15T19:24:52;11.73;;;6.80;;
32106;SDS011;18622;51.998;10.440;2023-02-15T19:27:24;9.58;;;5.90;;
32106;SDS011;18622;51.998;10.440;2023-02-15T19:29:53;15.55;;;9.05;;
32106;SDS011;18622;51.998;10.440;2023-02-15T19:32:23;12.23;;;6.70;;
32106;SDS011;18622;51.998;10.440;2023-02-15T19:34:51;11.47;;;6.60;;
32106;SDS011;18622;51.998;10.440;2023-02-15T19:37:21;10.93;;;5.57;;
32106;SDS011;18622;51.998;10.440;2023-02-15T19:39:50;10.50;;;5.87;;
32106;SDS011;18622;51.998;10.440;2023-02-15T19:42:21;14.53;;;5.90;;
32106;SDS011;18622;51.998;10.440;2023-02-15T19:44:49;12.05;;;7.33;;
32106;SDS011;18622;51.998;10.440;2023-02-15T19:47:17;13.90;;;8.03;;
32106;SDS011;18622;51.998;10.440;2023-02-15T19:49:45;20.83;;;10.97;;
32106;SDS011;18622;51.998;10.440;2023-02-15T19:52:16;19.83;;;10.77;;
32106;SDS011;18622;51.998;10.440;2023-02-15T19:54:46;22.62;;;12.98;;
32106;SDS011;18622;51.998;10.440;2023-02-15T19:57:14;19.52;;;10.50;;
32106;SDS011;18622;51.998;10.440;2023-02-15T19:59:42;19.43;;;12.50;;
32106;SDS011;18622;51.998;10.440;2023-02-15T20:02:13;16.23;;;10.47;;
32106;SDS011;18622;51.998;10.440;2023-02-15T20:04:43;16.13;;;8.50;;
32106;SDS011;18622;51.998;10.440;2023-02-15T20:07:24;13.67;;;7.23;;
32106;SDS011;18622;51.998;10.440;2023-02-15T20:09:53;10.77;;;6.63;;
32106;SDS011;18622;51.998;10.440;2023-02-15T20:12:22;11.87;;;6.80;;
32106;SDS011;18622;51.998;10.440;2023-02-15T20:17:18;15.88;;;7.58;;
32106;SDS011;18622;51.998;10.440;2023-02-15T20:19:46;16.93;;;10.03;;
32106;SDS011;18622;51.998;10.440;2023-02-15T20:22:24;18.07;;;9.63;;
32106;SDS011;18622;51.998;10.440;2023-02-15T20:24:54;17.77;;;6.97;;
32106;SDS011;18622;51.998;10.440;2023-02-15T20:27:22;18.30;;;11.25;;
32106;SDS011;18622;51.998;10.440;2023-02-15T20:29:51;15.98;;;9.78;;
32106;SDS011;18622;51.998;10.440;2023-02-15T20:32:20;20.67;;;9.90;;
32106;SDS011;18622;51.998;10.440;2023-02-15T20:34:48;17.33;;;10.13;;
32106;SDS011;18622;51.998;10.440;2023-02-15T20:37:19;21.03;;;10.73;;
32106;SDS011;18622;51.998;10.440;2023-02-15T20:39:49;18.53;;;10.07;;
32106;SDS011;18622;51.998;10.440;2023-02-15T20:42:16;19.35;;;10.03;;
32106;SDS011;18622;51.998;10.440;2023-02-15T20:44:45;20.57;;;9.80;;
32106;SDS011;18622;51.998;10.440;2023-02-15T20:47:12;14.43;;;7.37;;
32106;SDS011;18622;51.998;10.440;2023-02-15T20:49:40;13.63;;;7.57;;
32106;SDS011;18622;51.998;10.440;2023-02-15T20:52:14;14.10;;;7.83;;
32106;SDS011;18622;51.998;10.440;2023-02-15T20:54:45;12.43;;;6.97;;
32106;SDS011;18622;51.998;10.440;2023-02-15T20:57:13;12.43;;;7.37;;
32106;SDS011;18622;51.998;10.440;2023-02-15T20:59:41;15.10;;;9.05;;
32106;SDS011;18622;51.998;10.440;2023-02-15T21:02:20;14.63;;;7.53;;
32106;SDS011;18622;51.998;10.440;2023-02-15T21:04:48;14.67;;;7.13;;
32106;SDS011;18622;51.998;10.440;2023-02-15T21:07:17;12.77;;;6.97;;
32106;SDS011;18622;51.998;10.440;2023-02-15T21:09:46;12.33;;;7.28;;
32106;SDS011;18622;51.998;10.440;2023-02-15T21:12:15;12.73;;;7.10;;
32106;SDS011;18622;51.998;10.440;2023-02-15T21:14:44;19.15;;;8.65;;
32106;SDS011;18622;51.998;10.440;2023-02-15T21:17:12;16.90;;;9.47;;
32106;SDS011;18622;51.998;10.440;2023-02-15T21:19:42;16.60;;;8.55;;
32106;SDS011;18622;51.998;10.440;2023-02-15T21:22:13;25.07;;;13.80;;
32106;SDS011;18622;51.998;10.440;2023-02-15T21:24:44;15.33;;;8.43;;
32106;SDS011;18622;51.998;10.440;2023-02-15T21:27:15;11.60;;;6.77;;
32106;SDS011;18622;51.998;10.440;2023-02-15T21:29:44;12.20;;;7.37;;
32106;SDS011;18622;51.998;10.440;2023-02-15T21:32:11;14.50;;;8.07;;
32106;SDS011;18622;51.998;10.440;2023-02-15T21:34:39;15.07;;;8.27;;
32106;SDS011;18622;51.998;10.440;2023-02-15T21:37:17;16.23;;;9.43;;
32106;SDS011;18622;51.998;10.440;2023-02-15T21:39:50;15.03;;;9.20;;
32106;SDS011;18622;51.998;10.440;2023-02-15T21:42:18;15.57;;;8.57;;
